Time;durP1;ratioP1;P1;durP2;ratioP2;P2;SDS_P1;SDS_P2;PMS_P1;PMS_P2;Temp;Humidity;BMP_temperature;BMP_pressure;BME280_temperature;BME280_humidity;BME280_pressure;Samples;Min_cycle;Max_cycle;Signal;HPM_P1;HPM_P2
2023/11/08 00:01:49;;;;;;;3.97;1.30;;;9.10;99.90;;;;;;5118466;28;20230;-78
2023/11/08 00:04:14;;;;;;;7.22;1.25;;;9.10;99.90;;;;;;5100675;28;20203;-78
2023/11/08 00:06:40;;;;;;;3.40;1.00;;;9.10;99.90;;;;;;5118338;28;20271;-78
2023/11/08 00:09:06;;;;;;;1.83;1.10;;;9.20;99.90;;;;;;5083942;28;20178;-78
2023/11/08 00:11:32;;;;;;;7.30;1.47;;;9.10;99.90;;;;;;5084153;28;20449;-78
2023/11/08 00:13:57;;;;;;;3.17;1.27;;;9.10;99.90;;;;;;5119121;28;20184;-78
2023/11/08 00:16:23;;;;;;;2.60;1.53;;;9.10;99.90;;;;;;5118855;28;20473;-78
2023/11/08 00:18:49;;;;;;;4.80;1.40;;;9.20;99.90;;;;;;5118417;28;20616;-79
2023/11/08 00:21:14;;;;;;;4.27;1.03;;;9.20;99.90;;;;;;5082784;28;20203;-79
2023/11/08 00:23:41;;;;;;;3.50;1.30;;;9.20;99.90;;;;;;5082023;28;20899;-79
2023/11/08 00:26:07;;;;;;;7.55;1.48;;;9.20;99.90;;;;;;5119018;28;20229;-79
2023/11/08 00:28:33;;;;;;;2.75;0.95;;;9.20;99.90;;;;;;5099329;28;20593;-79
2023/11/08 00:30:59;;;;;;;4.50;1.27;;;9.20;99.90;;;;;;5100380;28;20654;-78
2023/11/08 00:33:25;;;;;;;3.70;1.53;;;9.20;99.90;;;;;;5082899;28;20187;-79
2023/11/08 00:35:51;;;;;;;2.27;1.00;;;9.30;99.90;;;;;;5106076;28;20191;-79
2023/11/08 00:38:16;;;;;;;5.60;1.20;;;9.30;99.90;;;;;;5097773;28;20297;-79
2023/11/08 00:40:42;;;;;;;2.57;0.97;;;9.20;99.90;;;;;;5097591;28;20417;-79
2023/11/08 00:43:09;;;;;;;2.47;1.03;;;9.20;99.90;;;;;;5087771;28;20464;-78
2023/11/08 00:45:35;;;;;;;4.53;1.30;;;9.20;99.90;;;;;;5083078;28;20470;-79
2023/11/08 00:48:01;;;;;;;2.30;1.20;;;9.20;99.90;;;;;;5082853;28;20179;-79
2023/11/08 00:50:29;;;;;;;3.47;1.10;;;9.20;99.90;;;;;;5117571;28;20179;-78
2023/11/08 00:52:58;;;;;;;2.30;1.00;;;9.10;99.90;;;;;;5117772;28;20553;-78
2023/11/08 00:55:24;;;;;;;3.40;1.30;;;9.20;99.90;;;;;;5118126;28;20268;-78
2023/11/08 00:57:50;;;;;;;1.23;1.00;;;9.20;99.90;;;;;;5117384;28;20508;-79
2023/11/08 01:00:16;;;;;;;1.77;1.30;;;9.20;99.90;;;;;;5095888;28;20228;-79
2023/11/08 01:02:42;;;;;;;2.97;1.17;;;9.20;99.90;;;;;;5096865;28;20272;-79
2023/11/08 01:05:09;;;;;;;1.77;1.00;;;9.20;99.90;;;;;;5097472;28;20287;-79
2023/11/08 01:07:36;;;;;;;2.83;1.30;;;9.30;99.90;;;;;;5097254;28;20179;-79
2023/11/08 01:10:02;;;;;;;5.90;1.48;;;9.30;99.90;;;;;;5096265;28;20180;-79
2023/11/08 01:12:27;;;;;;;4.80;1.27;;;9.30;99.90;;;;;;5096277;28;20198;-79
2023/11/08 01:14:53;;;;;;;1.87;0.93;;;9.30;99.90;;;;;;5095551;28;20187;-79
2023/11/08 01:17:19;;;;;;;3.53;0.97;;;9.30;99.90;;;;;;5079259;28;20279;-79
2023/11/08 01:19:45;;;;;;;3.53;1.10;;;9.30;99.90;;;;;;5078881;28;20180;-79
2023/11/08 01:22:11;;;;;;;3.87;1.23;;;9.30;99.90;;;;;;5096080;28;20274;-79
2023/11/08 01:24:38;;;;;;;4.88;1.20;;;9.30;99.90;;;;;;5078717;28;20306;-79
2023/11/08 01:27:04;;;;;;;9.73;2.08;;;9.20;99.90;;;;;;5095494;28;20180;-79
2023/11/08 01:29:30;;;;;;;3.83;1.25;;;9.30;99.90;;;;;;5086148;28;20557;-79
2023/11/08 01:31:56;;;;;;;5.22;1.48;;;9.20;99.90;;;;;;5048542;28;20221;-79
2023/11/08 01:34:21;;;;;;;3.03;0.90;;;9.30;99.90;;;;;;5096169;28;20555;-79
2023/11/08 01:36:48;;;;;;;1.33;1.03;;;9.40;99.90;;;;;;5095499;28;20180;-79
2023/11/08 01:39:13;;;;;;;2.13;1.30;;;9.40;99.90;;;;;;5095722;28;20590;-79
2023/11/08 01:41:48;;;;;;;4.13;1.43;;;9.40;99.90;;;;;;5095767;28;20189;-79
2023/11/08 01:44:19;;;;;;;4.00;1.13;;;9.40;99.90;;;;;;5096733;28;20191;-79
2023/11/08 01:46:47;;;;;;;4.13;1.40;;;9.40;99.90;;;;;;5079125;28;20192;-79
2023/11/08 01:49:13;;;;;;;2.30;1.00;;;9.50;99.90;;;;;;5096063;28;20206;-79
2023/11/08 01:51:40;;;;;;;4.07;1.67;;;9.40;99.90;;;;;;5061838;28;20212;-79
2023/11/08 01:54:06;;;;;;;2.85;1.05;;;9.40;99.90;;;;;;5096774;28;20239;-79
2023/11/08 01:56:32;;;;;;;2.17;1.20;;;9.40;99.90;;;;;;5092828;28;20218;-79
2023/11/08 01:58:58;;;;;;;5.78;1.45;;;9.40;99.90;;;;;;5115661;28;20807;-79
2023/11/08 02:01:25;;;;;;;6.00;1.40;;;9.40;99.90;;;;;;5115555;28;20227;-79
2023/11/08 02:03:53;;;;;;;1.48;1.00;;;9.40;99.90;;;;;;5098549;28;20457;-79
2023/11/08 02:06:19;;;;;;;2.25;1.15;;;9.40;99.90;;;;;;5115431;28;20180;-79
2023/11/08 02:08:46;;;;;;;3.10;1.20;;;9.40;99.90;;;;;;5101132;28;20179;-79
2023/11/08 02:11:12;;;;;;;1.42;1.00;;;9.40;99.90;;;;;;5120624;28;20191;-79
2023/11/08 02:13:39;;;;;;;4.63;1.10;;;9.40;99.90;;;;;;5119897;28;20211;-79
2023/11/08 02:16:05;;;;;;;4.45;1.00;;;9.40;99.90;;;;;;5119360;28;20187;-79
2023/11/08 02:18:31;;;;;;;2.20;1.10;;;9.40;99.90;;;;;;5085503;28;20191;-79
2023/11/08 02:21:00;;;;;;;4.03;1.27;;;9.40;99.90;;;;;;5119161;28;20187;-79
2023/11/08 02:23:26;;;;;;;2.15;1.20;;;9.50;99.90;;;;;;5103104;28;20468;-79
2023/11/08 02:25:52;;;;;;;1.67;1.10;;;9.40;99.90;;;;;;5115012;28;20192;-80
2023/11/08 02:28:20;;;;;;;3.70;1.30;;;9.40;99.90;;;;;;5062345;28;20181;-79
2023/11/08 02:30:53;;;;;;;8.35;1.40;;;9.40;99.90;;;;;;5078342;28;20230;-80
2023/11/08 02:33:23;;;;;;;2.78;0.90;;;9.40;99.90;;;;;;5062747;28;20196;-79
2023/11/08 02:35:49;;;;;;;3.35;1.20;;;9.40;99.90;;;;;;5078392;28;20584;-79
2023/11/08 02:38:15;;;;;;;2.83;1.20;;;9.40;99.90;;;;;;5078821;28;20173;-79
2023/11/08 02:40:42;;;;;;;2.85;1.25;;;9.30;99.90;;;;;;5098013;28;20188;-79
2023/11/08 02:43:08;;;;;;;8.27;1.23;;;9.40;99.90;;;;;;5118850;28;20237;-79
2023/11/08 02:45:34;;;;;;;3.70;1.27;;;9.30;99.90;;;;;;5102303;28;20236;-79
2023/11/08 02:48:03;;;;;;;5.10;2.53;;;9.30;99.90;;;;;;5118945;28;20176;-79
2023/11/08 02:50:33;;;;;;;2.83;1.30;;;9.30;99.90;;;;;;5119299;28;20175;-79
2023/11/08 02:52:59;;;;;;;5.28;1.50;;;9.30;99.90;;;;;;5119929;28;20693;-79
2023/11/08 02:55:28;;;;;;;4.28;1.25;;;9.20;99.90;;;;;;5101866;28;20202;-79
2023/11/08 02:57:55;;;;;;;2.13;1.25;;;9.20;99.90;;;;;;5118240;28;20179;-79
2023/11/08 03:00:21;;;;;;;2.30;1.05;;;9.10;99.90;;;;;;5119088;28;20223;-79
2023/11/08 03:02:47;;;;;;;4.03;1.30;;;9.10;99.90;;;;;;5119131;28;20207;-79
2023/11/08 03:05:13;;;;;;;3.78;1.30;;;9.10;99.90;;;;;;5119936;28;20195;-79
2023/11/08 03:07:39;;;;;;;3.50;0.95;;;9.00;99.90;;;;;;5118345;28;20203;-79
2023/11/08 03:10:05;;;;;;;3.13;0.97;;;9.00;99.90;;;;;;5118446;28;20183;-79
2023/11/08 03:12:31;;;;;;;6.00;1.37;;;8.90;99.90;;;;;;5088921;28;20191;-79
2023/11/08 03:14:56;;;;;;;8.52;1.20;;;8.90;99.90;;;;;;5099424;28;20406;-79
2023/11/08 03:17:22;;;;;;;4.10;1.77;;;8.90;99.90;;;;;;5081687;28;20177;-79
2023/11/08 03:19:47;;;;;;;7.07;1.20;;;8.90;99.90;;;;;;5098459;28;20203;-79
2023/11/08 03:22:15;;;;;;;1.67;1.47;;;8.90;99.90;;;;;;5099158;28;20525;-79
2023/11/08 03:24:42;;;;;;;4.40;1.27;;;8.90;99.90;;;;;;5098302;28;20230;-79
2023/11/08 03:27:08;;;;;;;7.68;1.30;;;8.90;99.90;;;;;;5098979;28;20179;-79
2023/11/08 03:29:34;;;;;;;4.23;1.83;;;8.80;99.90;;;;;;5063229;28;20206;-79
2023/11/08 03:32:00;;;;;;;2.13;1.27;;;8.80;99.90;;;;;;5097422;28;20241;-79
2023/11/08 03:34:27;;;;;;;8.20;1.67;;;8.70;99.90;;;;;;5099356;28;20547;-79
2023/11/08 03:36:53;;;;;;;3.17;1.23;;;8.70;99.90;;;;;;5097773;28;20173;-79
2023/11/08 03:39:19;;;;;;;4.00;1.42;;;8.70;99.90;;;;;;5098881;28;20525;-78
2023/11/08 03:41:45;;;;;;;4.37;1.90;;;8.70;99.90;;;;;;5098569;28;20175;-79
2023/11/08 03:44:10;;;;;;;5.70;1.30;;;8.60;99.90;;;;;;5097082;28;20794;-79
2023/11/08 03:46:36;;;;;;;3.57;1.80;;;8.60;99.90;;;;;;5080864;28;20229;-79
2023/11/08 03:49:02;;;;;;;3.10;1.33;;;8.60;99.90;;;;;;5080587;28;20207;-79
2023/11/08 03:51:28;;;;;;;7.35;1.58;;;8.50;99.90;;;;;;5099188;28;20572;-78
2023/11/08 03:53:54;;;;;;;2.43;1.10;;;8.50;99.90;;;;;;5109361;28;20244;-80
2023/11/08 03:56:20;;;;;;;3.75;1.58;;;8.50;99.90;;;;;;5117507;28;20547;-79
2023/11/08 03:58:45;;;;;;;4.77;1.33;;;8.50;99.90;;;;;;5117741;28;20183;-79
2023/11/08 04:01:11;;;;;;;4.60;1.20;;;8.50;99.90;;;;;;5100096;28;20261;-79
2023/11/08 04:03:36;;;;;;;4.17;1.37;;;8.50;99.90;;;;;;5117542;28;20214;-79
2023/11/08 04:06:02;;;;;;;1.30;1.00;;;8.50;99.90;;;;;;5117336;28;20622;-79
2023/11/08 04:08:28;;;;;;;4.35;1.27;;;8.40;99.90;;;;;;5099875;28;20274;-79
2023/11/08 04:10:54;;;;;;;3.73;1.23;;;8.40;99.90;;;;;;5117981;28;20203;-79
2023/11/08 04:13:20;;;;;;;1.90;1.30;;;8.40;99.90;;;;;;5117811;28;20180;-78
2023/11/08 04:15:45;;;;;;;2.87;1.60;;;8.40;99.90;;;;;;5075410;28;20514;-79
2023/11/08 04:18:11;;;;;;;7.57;1.90;;;8.40;99.90;;;;;;5076524;28;20426;-79
2023/11/08 04:20:38;;;;;;;4.73;1.53;;;8.40;99.90;;;;;;5060128;28;20191;-79
2023/11/08 04:23:04;;;;;;;5.32;1.58;;;8.40;99.90;;;;;;5075969;28;20212;-79
2023/11/08 04:25:33;;;;;;;4.90;1.40;;;8.40;99.90;;;;;;5059421;28;20199;-79
2023/11/08 04:27:58;;;;;;;4.53;1.55;;;8.30;99.90;;;;;;5059613;28;20463;-79
2023/11/08 04:30:24;;;;;;;2.90;1.20;;;8.20;99.90;;;;;;5108522;28;20262;-79
2023/11/08 04:32:49;;;;;;;2.60;1.30;;;8.30;99.90;;;;;;5099916;28;20179;-79
2023/11/08 04:35:17;;;;;;;5.73;1.60;;;8.20;99.90;;;;;;5116376;28;20218;-79
2023/11/08 04:37:43;;;;;;;3.05;1.40;;;8.20;99.90;;;;;;5099357;28;20180;-79
2023/11/08 04:40:09;;;;;;;6.65;1.48;;;8.20;99.90;;;;;;5117378;28;20172;-79
2023/11/08 04:42:35;;;;;;;3.95;1.80;;;8.10;99.90;;;;;;5116586;28;20172;-79
2023/11/08 04:45:01;;;;;;;3.70;1.48;;;8.00;99.90;;;;;;5100041;28;20186;-80
2023/11/08 04:47:27;;;;;;;3.80;1.60;;;7.90;99.90;;;;;;5117786;28;20182;-79
2023/11/08 04:49:53;;;;;;;8.32;2.10;;;7.90;99.90;;;;;;5099500;28;20845;-80
2023/11/08 04:52:20;;;;;;;2.97;1.67;;;7.80;99.90;;;;;;5116250;28;20179;-79
2023/11/08 04:54:46;;;;;;;5.15;1.65;;;7.80;99.90;;;;;;5118148;28;20417;-79
2023/11/08 04:57:16;;;;;;;1.23;1.10;;;7.70;99.90;;;;;;5116380;28;20187;-78
2023/11/08 04:59:51;;;;;;;2.08;1.33;;;7.60;99.90;;;;;;5106574;28;20215;-79
2023/11/08 05:02:18;;;;;;;8.63;1.33;;;7.60;99.90;;;;;;5097004;28;20190;-79
2023/11/08 05:04:48;;;;;;;5.35;1.45;;;7.50;99.90;;;;;;5095927;28;20227;-79
2023/11/08 05:07:14;;;;;;;3.13;1.45;;;7.60;99.90;;;;;;5079535;28;20184;-79
2023/11/08 05:09:40;;;;;;;2.85;1.73;;;7.50;99.90;;;;;;5097116;28;20251;-79
2023/11/08 05:12:10;;;;;;;5.10;1.70;;;7.50;99.90;;;;;;5095122;28;20271;-79
2023/11/08 05:14:38;;;;;;;3.60;1.52;;;7.50;99.90;;;;;;5095946;28;20509;-79
2023/11/08 05:17:05;;;;;;;3.85;2.25;;;7.50;99.90;;;;;;5079098;28;20179;-79
2023/11/08 05:19:31;;;;;;;7.10;2.60;;;7.40;99.90;;;;;;5095826;28;20230;-79
2023/11/08 05:21:56;;;;;;;7.10;2.08;;;7.40;99.90;;;;;;5096645;28;20670;-79
2023/11/08 05:24:22;;;;;;;3.07;1.90;;;7.40;99.90;;;;;;5096499;28;20211;-79
2023/11/08 05:26:49;;;;;;;4.60;1.42;;;7.40;99.90;;;;;;5078799;28;20222;-79
2023/11/08 05:29:15;;;;;;;3.45;1.60;;;7.40;99.90;;;;;;5084785;28;20308;-79
2023/11/08 05:31:41;;;;;;;5.00;2.73;;;7.40;99.90;;;;;;5116349;28;20203;-79
2023/11/08 05:34:07;;;;;;;5.83;3.33;;;7.30;99.90;;;;;;5115879;28;20185;-79
2023/11/08 05:36:34;;;;;;;6.93;2.53;;;7.40;99.90;;;;;;5115895;28;20180;-79
2023/11/08 05:39:00;;;;;;;7.72;2.25;;;7.40;99.90;;;;;;5115691;28;20202;-79
2023/11/08 05:41:26;;;;;;;4.40;1.75;;;7.40;99.90;;;;;;5116062;28;20180;-79
2023/11/08 05:43:58;;;;;;;5.70;2.50;;;7.50;99.90;;;;;;5101424;28;20333;-79
2023/11/08 05:46:25;;;;;;;6.70;3.10;;;7.40;99.90;;;;;;5120259;28;20193;-79
2023/11/08 05:48:50;;;;;;;7.43;2.47;;;7.50;99.90;;;;;;5102645;28;20179;-79
2023/11/08 05:51:16;;;;;;;10.80;4.47;;;7.40;99.90;;;;;;5102870;28;20184;-79
2023/11/08 05:53:42;;;;;;;12.32;4.78;;;7.30;99.90;;;;;;5119352;28;20180;-80
2023/11/08 05:56:07;;;;;;;12.23;5.07;;;7.30;99.90;;;;;;5119438;28;20262;-79
2023/11/08 05:58:36;;;;;;;6.90;3.13;;;7.30;99.90;;;;;;5119648;28;20180;-79
2023/11/08 06:01:05;;;;;;;12.13;3.58;;;7.30;99.90;;;;;;5099465;28;20331;-79
2023/11/08 06:03:31;;;;;;;10.02;4.40;;;7.30;99.90;;;;;;5074611;28;20203;-80
2023/11/08 06:05:57;;;;;;;8.77;3.23;;;7.30;99.90;;;;;;5050591;28;20199;-79
2023/11/08 06:08:23;;;;;;;15.32;5.03;;;7.30;99.90;;;;;;5076014;28;20507;-79
2023/11/08 06:10:49;;;;;;;12.10;4.30;;;7.30;99.90;;;;;;5059061;28;20201;-79
2023/11/08 06:13:15;;;;;;;16.33;7.13;;;7.30;99.90;;;;;;5075491;28;20552;-80
2023/11/08 06:15:41;;;;;;;12.93;4.50;;;7.20;99.90;;;;;;5041714;28;20181;-80
2023/11/08 06:18:08;;;;;;;4.18;2.75;;;7.30;99.90;;;;;;5075519;28;20431;-79
2023/11/08 06:20:34;;;;;;;9.95;4.45;;;7.30;99.90;;;;;;5058669;28;20175;-80
2023/11/08 06:23:00;;;;;;;11.73;5.23;;;7.30;99.90;;;;;;5057618;28;20227;-83
2023/11/08 06:25:26;;;;;;;10.33;4.00;;;7.40;99.90;;;;;;5057927;28;20432;-83
2023/11/08 06:27:51;;;;;;;3.65;2.20;;;7.50;99.90;;;;;;5041289;28;20186;-80
2023/11/08 06:30:17;;;;;;;8.67;4.70;;;7.50;99.90;;;;;;5057543;28;20237;-80
2023/11/08 06:32:43;;;;;;;7.20;3.03;;;7.60;99.90;;;;;;5065215;28;20185;-79
2023/11/08 06:35:09;;;;;;;8.60;4.10;;;7.60;99.90;;;;;;5094418;28;20539;-80
2023/11/08 06:37:35;;;;;;;11.25;5.35;;;7.60;99.90;;;;;;5079071;28;20538;-80
2023/11/08 06:40:01;;;;;;;7.50;3.90;;;7.70;99.90;;;;;;5078991;28;20185;-80
2023/11/08 06:42:26;;;;;;;9.10;4.07;;;7.70;99.90;;;;;;5095066;28;20183;-79
2023/11/08 06:44:52;;;;;;;10.53;4.80;;;7.60;99.90;;;;;;5094518;28;20691;-80
2023/11/08 06:47:18;;;;;;;4.20;1.80;;;7.70;99.90;;;;;;5064782;28;20212;-80
2023/11/08 06:49:43;;;;;;;8.53;2.67;;;7.70;99.90;;;;;;5057855;28;20177;-80
2023/11/08 06:52:09;;;;;;;3.43;1.67;;;7.70;99.90;;;;;;5074305;28;20478;-80
2023/11/08 06:54:35;;;;;;;4.40;1.47;;;7.80;99.90;;;;;;5073882;28;20177;-80
2023/11/08 06:57:00;;;;;;;5.67;2.17;;;7.80;99.90;;;;;;5057257;28;20178;-80
2023/11/08 06:59:26;;;;;;;5.90;1.63;;;7.90;99.90;;;;;;5074436;28;20247;-80
2023/11/08 07:01:52;;;;;;;4.85;1.63;;;8.00;99.90;;;;;;5077700;28;20229;-80
2023/11/08 07:04:17;;;;;;;4.33;1.30;;;8.00;99.90;;;;;;5060707;28;20212;-80
2023/11/08 07:06:43;;;;;;;1.10;1.00;;;8.00;99.90;;;;;;5044691;28;20188;-79
2023/11/08 07:09:14;;;;;;;3.47;1.30;;;8.20;99.90;;;;;;5078277;28;20230;-80
2023/11/08 07:11:40;;;;;;;1.90;1.33;;;8.20;99.90;;;;;;5077576;28;20200;-80
2023/11/08 07:14:06;;;;;;;4.93;1.20;;;8.20;99.90;;;;;;5080812;28;20246;-80
2023/11/08 07:16:31;;;;;;;5.73;1.50;;;8.30;99.90;;;;;;5095709;28;20927;-79
2023/11/08 07:18:57;;;;;;;3.80;1.73;;;8.30;99.90;;;;;;5081212;28;20689;-79
2023/11/08 07:21:23;;;;;;;5.77;1.70;;;8.20;99.90;;;;;;5080224;28;20430;-79
2023/11/08 07:23:49;;;;;;;4.30;2.40;;;8.20;99.90;;;;;;5079079;28;20228;-78
2023/11/08 07:26:16;;;;;;;4.60;1.73;;;8.30;99.90;;;;;;5076764;28;20422;-78
2023/11/08 07:28:43;;;;;;;2.38;1.25;;;8.30;99.90;;;;;;5085931;28;20430;-78
2023/11/08 07:31:09;;;;;;;6.38;1.45;;;8.30;99.90;;;;;;5097573;28;20179;-79
2023/11/08 07:33:36;;;;;;;3.53;1.70;;;8.50;99.90;;;;;;5097510;28;20192;-79
2023/11/08 07:36:03;;;;;;;4.45;1.50;;;8.60;99.90;;;;;;5098448;28;20169;-79
2023/11/08 07:38:29;;;;;;;3.63;1.35;;;8.70;99.90;;;;;;5080478;28;20648;-79
2023/11/08 07:40:54;;;;;;;6.30;1.30;;;8.90;99.90;;;;;;5097332;28;20172;-79
2023/11/08 07:43:20;;;;;;;6.70;1.43;;;9.00;99.90;;;;;;5096900;28;20607;-78
2023/11/08 07:45:48;;;;;;;4.47;1.50;;;9.00;99.90;;;;;;5080576;28;20418;-79
2023/11/08 07:48:14;;;;;;;2.35;1.13;;;9.10;99.90;;;;;;5097218;28;20196;-79
2023/11/08 07:50:40;;;;;;;5.10;1.35;;;9.10;99.90;;;;;;5097710;28;20248;-78
2023/11/08 07:53:06;;;;;;;4.50;1.30;;;9.20;99.90;;;;;;5096491;28;20199;-79
2023/11/08 07:55:32;;;;;;;5.57;1.43;;;9.20;99.90;;;;;;5097157;28;20176;-79
2023/11/08 07:57:57;;;;;;;4.67;1.27;;;9.10;99.90;;;;;;5098600;28;20263;-79
2023/11/08 08:00:24;;;;;;;4.00;1.20;;;9.00;99.90;;;;;;5062414;28;21004;-79
2023/11/08 08:02:50;;;;;;;2.97;1.00;;;9.10;99.90;;;;;;5096870;28;20204;-79
2023/11/08 08:05:16;;;;;;;4.70;1.17;;;9.10;99.90;;;;;;5096709;28;20737;-78
2023/11/08 08:07:42;;;;;;;6.40;1.50;;;9.10;99.90;;;;;;5079870;28;20453;-79
2023/11/08 08:10:09;;;;;;;2.20;1.00;;;9.10;99.90;;;;;;5063234;28;20191;-79
2023/11/08 08:12:35;;;;;;;4.40;1.10;;;9.20;99.90;;;;;;5096541;28;20190;-79
2023/11/08 08:15:05;;;;;;;3.10;1.00;;;9.20;99.90;;;;;;5095872;28;20180;-78
2023/11/08 08:17:32;;;;;;;2.97;1.38;;;9.30;99.90;;;;;;5096505;28;20224;-78
2023/11/08 08:19:57;;;;;;;3.80;1.85;;;9.30;99.90;;;;;;5096564;28;20223;-78
2023/11/08 08:22:23;;;;;;;3.47;1.50;;;9.40;99.90;;;;;;5078656;28;20188;-78
2023/11/08 08:24:49;;;;;;;4.10;1.70;;;9.50;99.90;;;;;;5079305;28;20222;-78
2023/11/08 08:27:15;;;;;;;4.90;0.97;;;9.60;99.90;;;;;;5096665;28;20428;-78
2023/11/08 08:29:41;;;;;;;2.40;1.30;;;9.60;99.90;;;;;;5096169;28;20184;-78
2023/11/08 08:32:06;;;;;;;4.22;1.90;;;9.60;99.90;;;;;;5096279;28;20183;-78
2023/11/08 08:34:33;;;;;;;5.37;1.13;;;9.70;99.90;;;;;;5096657;28;20190;-80
2023/11/08 08:36:58;;;;;;;7.13;1.52;;;9.80;99.90;;;;;;5095783;28;20203;-78
2023/11/08 08:39:27;;;;;;;3.13;1.07;;;9.90;99.90;;;;;;5079217;28;20180;-79
2023/11/08 08:41:53;;;;;;;6.75;1.35;;;10.00;99.90;;;;;;5079707;28;20173;-78
2023/11/08 08:44:19;;;;;;;3.13;1.10;;;10.20;99.90;;;;;;5093790;28;20205;-78
2023/11/08 08:46:48;;;;;;;2.93;1.20;;;10.30;99.90;;;;;;5097354;28;20192;-78
2023/11/08 08:49:13;;;;;;;5.75;1.10;;;10.40;99.90;;;;;;5080268;28;20416;-79
2023/11/08 08:51:40;;;;;;;3.20;1.40;;;10.40;99.90;;;;;;5093158;28;20202;-79
2023/11/08 08:54:07;;;;;;;4.20;1.00;;;10.40;99.90;;;;;;5097352;28;20183;-78
2023/11/08 08:56:36;;;;;;;5.20;1.00;;;10.40;99.90;;;;;;5095936;28;20237;-79
2023/11/08 08:59:02;;;;;;;4.28;1.42;;;10.40;99.90;;;;;;5095642;28;20237;-78
2023/11/08 09:01:28;;;;;;;6.70;1.30;;;10.50;99.90;;;;;;5095272;28;20238;-79
2023/11/08 09:03:53;;;;;;;3.03;1.17;;;10.40;99.90;;;;;;5096744;28;20291;-78
2023/11/08 09:06:19;;;;;;;4.00;1.07;;;10.50;99.90;;;;;;5096189;28;20223;-78
2023/11/08 09:08:45;;;;;;;3.90;1.60;;;10.50;99.90;;;;;;5097122;28;20255;-79
2023/11/08 09:11:11;;;;;;;7.60;1.33;;;10.60;99.90;;;;;;5097135;28;20517;-78
2023/11/08 09:13:37;;;;;;;3.27;1.37;;;10.70;99.90;;;;;;5095642;28;20216;-78
2023/11/08 09:16:07;;;;;;;5.23;1.77;;;10.80;99.90;;;;;;5096444;28;20172;-78
2023/11/08 09:18:35;;;;;;;2.50;1.08;;;10.90;99.90;;;;;;5094688;28;20255;-79
2023/11/08 09:21:01;;;;;;;6.43;0.90;;;10.90;99.90;;;;;;5095515;28;20188;-79
2023/11/08 09:23:31;;;;;;;7.43;1.73;;;11.00;99.90;;;;;;5096409;28;20204;-79
2023/11/08 09:25:57;;;;;;;6.53;1.35;;;11.20;99.90;;;;;;5081048;28;20510;-79
2023/11/08 09:28:23;;;;;;;3.83;1.27;;;11.40;99.90;;;;;;5076916;28;20519;-78
2023/11/08 09:30:51;;;;;;;3.03;1.30;;;11.60;99.90;;;;;;5076264;28;20502;-79
2023/11/08 09:33:16;;;;;;;3.13;1.23;;;11.90;99.90;;;;;;5074477;28;20616;-78
2023/11/08 09:35:42;;;;;;;3.17;1.60;;;12.00;99.90;;;;;;5076025;28;20431;-79
2023/11/08 09:38:07;;;;;;;8.90;1.30;;;12.30;99.90;;;;;;5074730;28;20883;-78
2023/11/08 09:40:33;;;;;;;6.77;1.63;;;12.90;99.90;;;;;;5074544;28;20278;-78
2023/11/08 09:43:00;;;;;;;2.90;1.10;;;12.80;99.90;;;;;;5074622;28;20291;-79
2023/11/08 09:45:30;;;;;;;2.80;1.30;;;12.90;99.90;;;;;;5074660;28;20188;-79
2023/11/08 09:47:57;;;;;;;8.83;1.60;;;12.90;99.90;;;;;;5074666;28;20391;-79
2023/11/08 09:50:24;;;;;;;2.67;1.00;;;13.30;99.90;;;;;;5075967;28;20410;-78
2023/11/08 09:52:50;;;;;;;5.57;1.17;;;13.40;99.90;;;;;;5075508;28;20419;-79
2023/11/08 09:55:17;;;;;;;7.27;1.70;;;12.90;99.90;;;;;;5077022;28;21404;-79
2023/11/08 09:57:43;;;;;;;3.90;1.43;;;13.10;99.90;;;;;;5093269;28;20438;-78
2023/11/08 10:00:10;;;;;;;3.60;1.10;;;13.40;99.90;;;;;;5077742;28;20445;-78
2023/11/08 10:02:37;;;;;;;4.40;1.10;;;13.70;99.90;;;;;;5095961;28;20406;-78
2023/11/08 10:05:06;;;;;;;5.03;1.47;;;13.80;99.90;;;;;;5095011;28;20930;-78
2023/11/08 10:07:32;;;;;;;3.10;2.20;;;13.80;99.90;;;;;;5080912;28;20426;-79
2023/11/08 10:09:58;;;;;;;6.00;1.97;;;13.40;99.90;;;;;;5097540;28;20421;-79
2023/11/08 10:12:25;;;;;;;3.97;1.40;;;13.20;99.90;;;;;;5115499;28;20413;-79
2023/11/08 10:14:58;;;;;;;4.70;1.63;;;12.90;99.90;;;;;;5116619;28;20228;-79
2023/11/08 10:17:38;;;;;;;3.80;1.37;;;12.80;99.90;;;;;;5084759;28;20433;-79
2023/11/08 10:20:08;;;;;;;5.97;2.10;;;12.80;99.90;;;;;;5095537;28;20418;-79
2023/11/08 10:22:34;;;;;;;2.30;1.10;;;13.00;99.90;;;;;;5094253;28;20438;-79
2023/11/08 10:25:02;;;;;;;2.67;1.30;;;13.40;99.90;;;;;;5096298;28;20413;-79
2023/11/08 10:27:29;;;;;;;3.47;1.57;;;13.20;99.90;;;;;;5095649;28;20448;-79
2023/11/08 10:30:21;;;;;;;7.90;1.83;;;13.10;99.90;;;;;;5098487;28;20430;-79
2023/11/08 10:32:47;;;;;;;6.87;1.90;;;13.30;99.90;;;;;;5090050;28;20415;-79
2023/11/08 10:35:19;;;;;;;1.97;1.30;;;13.30;99.90;;;;;;5098869;28;20410;-79
2023/11/08 10:37:46;;;;;;;2.07;1.30;;;13.40;99.90;;;;;;5099722;28;20925;-79
2023/11/08 10:40:15;;;;;;;4.37;1.43;;;13.70;99.90;;;;;;5099953;28;20418;-80
2023/11/08 10:42:49;;;;;;;3.57;1.20;;;13.90;99.90;;;;;;5119906;28;20508;-79
2023/11/08 10:45:15;;;;;;;4.83;1.13;;;13.60;99.90;;;;;;5119459;28;20845;-79
2023/11/08 10:47:41;;;;;;;4.10;1.30;;;13.60;99.90;;;;;;5119414;28;20444;-79
2023/11/08 10:50:11;;;;;;;4.53;1.13;;;13.70;99.90;;;;;;5119638;28;20175;-79
2023/11/08 10:52:38;;;;;;;4.60;1.37;;;13.60;99.90;;;;;;5118881;28;20251;-79
2023/11/08 10:55:06;;;;;;;4.27;1.70;;;13.40;99.90;;;;;;5120088;28;20444;-79
2023/11/08 10:57:33;;;;;;;3.03;1.53;;;13.20;99.90;;;;;;5119063;28;20778;-79
2023/11/08 11:00:04;;;;;;;2.23;1.03;;;13.30;99.90;;;;;;5119735;28;20771;-78
2023/11/08 11:02:33;;;;;;;3.60;1.50;;;12.90;99.90;;;;;;5119240;28;20417;-79
2023/11/08 11:05:03;;;;;;;4.80;1.27;;;13.00;99.90;;;;;;5119402;28;20559;-79
2023/11/08 11:07:30;;;;;;;3.60;1.47;;;12.90;99.90;;;;;;5118398;28;20410;-79
2023/11/08 11:09:56;;;;;;;2.27;1.13;;;12.70;99.90;;;;;;5119576;28;20441;-79
2023/11/08 11:12:45;;;;;;;2.27;1.40;;;12.70;99.90;;;;;;5118700;28;20765;-79
2023/11/08 11:15:24;;;;;;;3.97;1.30;;;12.80;99.90;;;;;;5118988;28;20386;-79
2023/11/08 11:17:55;;;;;;;6.43;1.17;;;12.70;99.90;;;;;;5119178;28;20468;-79
2023/11/08 11:20:23;;;;;;;4.17;1.40;;;12.70;99.90;;;;;;5118839;28;20386;-79
2023/11/08 11:22:49;;;;;;;4.13;1.20;;;12.80;99.90;;;;;;5100625;28;20786;-79
2023/11/08 11:25:50;;;;;;;3.03;1.30;;;13.00;99.90;;;;;;5118548;28;20417;-79
2023/11/08 11:28:52;;;;;;;5.23;1.00;;;12.90;99.90;;;;;;5100271;28;20679;-79
2023/11/08 11:31:43;;;;;;;7.00;1.17;;;12.90;99.90;;;;;;5100613;28;20435;-79
2023/11/08 11:34:20;;;;;;;3.13;1.40;;;13.20;99.90;;;;;;5100788;28;20403;-79
2023/11/08 11:37:13;;;;;;;7.63;1.43;;;13.50;99.90;;;;;;5100186;28;20417;-79
2023/11/08 11:39:48;;;;;;;2.47;1.00;;;13.60;99.90;;;;;;5118285;28;20425;-79
2023/11/08 11:42:25;;;;;;;4.60;1.50;;;13.50;99.90;;;;;;5118403;28;20828;-79
2023/11/08 11:44:57;;;;;;;5.00;1.20;;;13.40;99.90;;;;;;5100289;28;20532;-79
2023/11/08 11:47:28;;;;;;;7.37;1.47;;;13.40;99.90;;;;;;5118729;28;20406;-79
2023/11/08 11:50:07;;;;;;;4.10;1.13;;;13.50;99.90;;;;;;5100702;28;20454;-79
2023/11/08 11:52:35;;;;;;;3.83;1.27;;;13.40;99.90;;;;;;5118075;28;20432;-80
2023/11/08 11:55:04;;;;;;;2.73;1.53;;;13.40;99.90;;;;;;5118210;28;20977;-79
2023/11/08 11:57:30;;;;;;;3.17;1.50;;;13.40;99.90;;;;;;5117728;28;20429;-79
2023/11/08 11:59:58;;;;;;;5.27;1.33;;;13.50;99.90;;;;;;5118033;28;20413;-79
2023/11/08 12:02:25;;;;;;;3.03;1.00;;;13.40;99.90;;;;;;5117598;28;20427;-79
2023/11/08 12:04:50;;;;;;;3.60;1.20;;;13.30;99.90;;;;;;5118259;28;20496;-79
2023/11/08 12:07:17;;;;;;;6.50;1.30;;;13.50;99.90;;;;;;5099108;28;20418;-79
2023/11/08 12:09:44;;;;;;;1.50;1.27;;;13.30;99.90;;;;;;5116992;28;20176;-80
2023/11/08 12:12:10;;;;;;;4.00;1.80;;;13.10;99.90;;;;;;5081863;28;20991;-81
2023/11/08 12:14:43;;;;;;;3.10;1.20;;;13.10;99.90;;;;;;5117145;28;20508;-81
2023/11/08 12:17:09;;;;;;;4.30;1.33;;;13.30;99.90;;;;;;5099346;28;20413;-80
2023/11/08 12:19:35;;;;;;;3.80;1.23;;;13.20;99.90;;;;;;5117814;28;20409;-81
2023/11/08 12:22:01;;;;;;;4.67;1.37;;;13.10;99.90;;;;;;5066097;28;20179;-81
2023/11/08 12:24:31;;;;;;;2.33;1.43;;;13.00;99.90;;;;;;5116766;28;20206;-81
2023/11/08 12:26:57;;;;;;;2.20;0.97;;;13.20;99.90;;;;;;5082689;28;20477;-81
2023/11/08 12:29:23;;;;;;;4.40;1.33;;;13.20;99.90;;;;;;5099026;28;20815;-81
2023/11/08 12:31:50;;;;;;;3.20;1.20;;;13.10;99.90;;;;;;5098507;28;20410;-81
2023/11/08 12:34:16;;;;;;;1.20;0.90;;;12.90;99.90;;;;;;5116868;28;20939;-81
2023/11/08 12:36:44;;;;;;;3.63;1.37;;;12.70;99.90;;;;;;5116959;28;20412;-81
2023/11/08 12:39:17;;;;;;;1.80;0.83;;;12.70;99.90;;;;;;5116960;28;20839;-81
2023/11/08 12:41:47;;;;;;;2.27;1.00;;;12.70;99.90;;;;;;5116826;28;20393;-81
2023/11/08 12:44:14;;;;;;;4.10;1.10;;;12.80;99.90;;;;;;5098935;28;20465;-81
2023/11/08 12:47:10;;;;;;;3.73;1.10;;;12.80;99.90;;;;;;5116700;28;20977;-81
2023/11/08 12:49:36;;;;;;;2.63;1.00;;;12.80;99.90;;;;;;5065262;28;20467;-81
2023/11/08 12:52:12;;;;;;;2.07;0.90;;;12.60;99.90;;;;;;5099034;28;20471;-81
2023/11/08 12:54:37;;;;;;;6.90;1.00;;;12.60;99.90;;;;;;5082852;28;20904;-81